createdAt,value
2022-11-23T00:01:25.017Z,1.81
2022-11-23T00:03:55.178Z,1.73
2022-11-23T00:06:24.318Z,1.73
2022-11-23T00:08:51.931Z,1.79
2022-11-23T00:11:21.748Z,1.88
2022-11-23T00:13:49.397Z,1.88
2022-11-23T00:16:21.214Z,1.49
2022-11-23T00:18:48.931Z,1.56
2022-11-23T00:21:18.306Z,1.75
2022-11-23T00:23:46.055Z,1.38
2022-11-23T00:26:14.321Z,1.24
2022-11-23T00:28:42.176Z,1.40
2022-11-23T00:31:11.848Z,1.23
2022-11-23T00:33:39.403Z,1.53
2022-11-23T00:36:14.605Z,1.59
2022-11-23T00:38:43.541Z,1.41
2022-11-23T00:41:15.239Z,1.65
2022-11-23T00:43:43.527Z,1.61
2022-11-23T00:46:21.605Z,1.37
2022-11-23T00:48:51.647Z,1.75
2022-11-23T00:51:39.474Z,1.89
2022-11-23T00:54:09.263Z,1.98
2022-11-23T00:56:36.581Z,1.91
2022-11-23T00:59:04.419Z,1.59
2022-11-23T01:01:36.959Z,1.75
2022-11-23T01:04:06.752Z,1.70
2022-11-23T01:06:38.619Z,1.46
2022-11-23T01:09:17.833Z,1.39
2022-11-23T01:11:45.768Z,1.26
2022-11-23T01:14:13.329Z,1.38
2022-11-23T01:16:42.069Z,1.38
2022-11-23T01:19:16.615Z,1.40
2022-11-23T01:21:44.444Z,1.35
2022-11-23T01:24:21.239Z,1.59
2022-11-23T01:26:53.036Z,1.63
2022-11-23T01:29:21.037Z,1.79
2022-11-23T01:31:48.160Z,2.04
2022-11-23T01:34:16.434Z,2.16
2022-11-23T01:36:45.028Z,2.43
2022-11-23T01:39:13.212Z,2.23
2022-11-23T01:41:43.800Z,2.06
2022-11-23T01:44:33.141Z,1.99
2022-11-23T01:47:06.402Z,2.12
2022-11-23T01:49:44.769Z,2.29
2022-11-23T01:52:17.241Z,2.01
2022-11-23T01:54:49.145Z,2.32
2022-11-23T01:57:26.148Z,2.30
2022-11-23T01:59:54.789Z,2.61
2022-11-23T02:02:22.393Z,2.87
2022-11-23T02:04:54.504Z,3.10
2022-11-23T02:07:24.006Z,2.99
2022-11-23T02:09:52.807Z,3.03
2022-11-23T02:12:20.158Z,3.05
2022-11-23T02:14:47.825Z,3.16
2022-11-23T02:17:15.529Z,3.13
2022-11-23T02:20:08.839Z,3.11
2022-11-23T02:22:54.623Z,3.07
2022-11-23T02:25:38.416Z,2.69
2022-11-23T02:28:06.334Z,2.29
2022-11-23T02:30:34.619Z,2.56
2022-11-23T02:33:05.440Z,3.02
2022-11-23T02:35:33.750Z,3.01
2022-11-23T02:38:03.961Z,3.07
2022-11-23T02:40:36.073Z,3.17
2022-11-23T02:43:03.869Z,3.22
2022-11-23T02:45:35.231Z,3.53
2022-11-23T02:48:03.335Z,3.61
2022-11-23T02:50:31.434Z,3.71
2022-11-23T02:53:00.800Z,3.79
2022-11-23T02:55:28.189Z,3.75
2022-11-23T02:57:55.549Z,3.69
2022-11-23T03:00:22.879Z,3.69
2022-11-23T03:02:50.285Z,3.76
2022-11-23T03:05:17.708Z,3.78
2022-11-23T03:07:45.191Z,3.86
2022-11-23T03:10:14.022Z,3.97
2022-11-23T03:12:41.462Z,3.93
2022-11-23T03:15:09.895Z,4.05
2022-11-23T03:17:41.226Z,4.01
2022-11-23T03:20:12.629Z,3.96
2022-11-23T03:22:43.574Z,4.07
2022-11-23T03:25:12.789Z,4.16
2022-11-23T03:27:40.563Z,4.12
2022-11-23T03:30:09.571Z,4.13
2022-11-23T03:32:37.704Z,4.06
2022-11-23T03:35:06.055Z,4.10
2022-11-23T03:37:35.258Z,4.21
2022-11-23T03:40:02.907Z,4.11
2022-11-23T03:42:48.839Z,4.11
2022-11-23T03:45:16.745Z,4.07
2022-11-23T03:47:45.041Z,4.15
2022-11-23T03:50:13.547Z,4.08
2022-11-23T03:52:40.924Z,4.01
2022-11-23T03:55:08.591Z,4.11
2022-11-23T03:57:36.123Z,4.00
2022-11-23T04:00:06.126Z,3.85
2022-11-23T04:02:40.966Z,3.79
2022-11-23T04:05:25.371Z,3.76
2022-11-23T04:08:15.585Z,3.77
2022-11-23T04:10:42.975Z,3.90
2022-11-23T04:13:16.190Z,3.93
2022-11-23T04:15:43.785Z,3.93
2022-11-23T04:18:11.614Z,3.83
2022-11-23T04:20:40.170Z,3.91
2022-11-23T04:23:12.867Z,3.90
2022-11-23T04:25:41.274Z,3.88
2022-11-23T04:28:08.960Z,3.95
2022-11-23T04:30:36.287Z,4.22
2022-11-23T04:33:03.655Z,4.29
2022-11-23T04:35:31.637Z,3.96
2022-11-23T04:37:59.908Z,3.95
2022-11-23T04:40:31.634Z,4.17
2022-11-23T04:43:03.475Z,4.05
2022-11-23T04:45:37.313Z,3.85
2022-11-23T04:48:07.725Z,4.20
2022-11-23T04:50:40.421Z,4.23
2022-11-23T04:53:09.604Z,4.28
2022-11-23T04:55:42.476Z,4.25
2022-11-23T04:58:11.324Z,4.24
2022-11-23T05:00:39.827Z,4.40
2022-11-23T05:03:07.657Z,4.42
2022-11-23T05:05:40.614Z,4.33
2022-11-23T05:08:09.578Z,4.37
2022-11-23T05:11:06.996Z,4.36
2022-11-23T05:13:34.468Z,4.41
2022-11-23T05:16:02.990Z,4.41
2022-11-23T05:18:30.602Z,4.38
2022-11-23T05:20:58.538Z,4.38
2022-11-23T05:23:27.045Z,4.48
2022-11-23T05:25:55.299Z,4.45
2022-11-23T05:28:39.533Z,4.46
2022-11-23T05:31:08.962Z,4.54
2022-11-23T05:33:37.389Z,4.41
2022-11-23T05:36:06.230Z,4.36
2022-11-23T05:38:39.290Z,4.56
2022-11-23T05:41:12.810Z,4.63
2022-11-23T05:43:43.109Z,4.63
2022-11-23T05:46:14.314Z,4.39
2022-11-23T05:48:41.995Z,4.05
2022-11-23T05:51:10.954Z,4.04
2022-11-23T05:53:43.883Z,4.02
2022-11-23T05:56:24.062Z,4.01
2022-11-23T05:59:17.528Z,4.05
2022-11-23T06:01:49.816Z,3.98
2022-11-23T06:04:24.526Z,3.75
2022-11-23T06:06:54.468Z,3.88
2022-11-23T06:09:21.841Z,3.97
2022-11-23T06:11:51.590Z,4.28
2022-11-23T06:14:20.808Z,4.17
2022-11-23T06:16:48.650Z,4.08
2022-11-23T06:19:32.575Z,4.05
2022-11-23T06:22:00.042Z,4.21
2022-11-23T06:24:31.284Z,4.13
2022-11-23T06:27:24.557Z,4.05
2022-11-23T06:29:52.538Z,3.97
2022-11-23T06:32:21.815Z,3.84
2022-11-23T06:34:49.237Z,3.29
2022-11-23T06:37:16.720Z,3.03
2022-11-23T06:39:49.391Z,2.78
2022-11-23T06:42:37.916Z,2.67
2022-11-23T06:45:05.030Z,2.68
2022-11-23T06:47:32.620Z,2.61
2022-11-23T06:49:59.918Z,2.76
2022-11-23T06:52:29.149Z,2.67
2022-11-23T06:54:56.588Z,2.37
2022-11-23T06:57:25.589Z,2.69
2022-11-23T06:59:54.401Z,2.42
2022-11-23T07:02:27.289Z,2.13
2022-11-23T07:04:57.500Z,2.04
2022-11-23T07:07:25.971Z,1.92
2022-11-23T07:10:06.870Z,2.24
2022-11-23T07:12:44.284Z,2.05
2022-11-23T07:15:12.261Z,1.95
2022-11-23T07:17:41.446Z,1.95
2022-11-23T07:20:11.542Z,1.99
2022-11-23T07:22:39.425Z,2.33
2022-11-23T07:25:07.057Z,2.46
2022-11-23T07:27:34.443Z,2.54
2022-11-23T07:30:03.286Z,2.80
2022-11-23T07:32:31.161Z,3.03
2022-11-23T07:34:58.483Z,3.35
2022-11-23T07:37:26.882Z,3.54
2022-11-23T07:39:57.872Z,3.58
2022-11-23T07:42:39.897Z,3.76
2022-11-23T07:45:12.121Z,3.86
2022-11-23T07:47:44.059Z,4.40
2022-11-23T07:50:12.925Z,4.76
2022-11-23T07:52:41.327Z,5.01
2022-11-23T07:55:09.104Z,5.24
2022-11-23T07:57:36.495Z,5.65
2022-11-23T08:00:05.049Z,5.93
2022-11-23T08:02:52.830Z,6.12
2022-11-23T08:05:27.468Z,6.27
2022-11-23T08:08:01.705Z,6.56
2022-11-23T08:10:30.129Z,7.10
2022-11-23T08:13:01.376Z,6.92
2022-11-23T08:15:28.922Z,7.13
2022-11-23T08:18:04.339Z,6.91
2022-11-23T08:20:33.325Z,7.77
2022-11-23T08:23:00.751Z,8.05
2022-11-23T08:25:29.299Z,8.76
2022-11-23T08:27:58.598Z,9.05
2022-11-23T08:30:26.796Z,9.51
2022-11-23T08:32:54.204Z,9.80
2022-11-23T08:35:21.705Z,10.81
2022-11-23T08:37:49.091Z,11.25
2022-11-23T08:40:20.740Z,11.43
2022-11-23T08:42:52.294Z,11.30
2022-11-23T08:45:19.548Z,11.88
2022-11-23T08:47:46.955Z,12.32
2022-11-23T08:50:14.764Z,12.85
2022-11-23T08:52:42.074Z,13.64
2022-11-23T08:55:09.791Z,13.34
2022-11-23T08:57:37.140Z,14.51
2022-11-23T09:00:08.034Z,14.87
2022-11-23T09:02:35.377Z,14.20
2022-11-23T09:05:02.743Z,13.79
2022-11-23T09:07:30.067Z,13.16
2022-11-23T09:09:57.499Z,12.61
2022-11-23T09:12:24.799Z,13.03
2022-11-23T09:14:53.536Z,12.98
2022-11-23T09:17:20.860Z,13.98
2022-11-23T09:19:50.497Z,11.65
2022-11-23T09:22:18.008Z,13.13
2022-11-23T09:24:45.366Z,13.58
2022-11-23T09:27:13.071Z,11.50
2022-11-23T09:29:40.731Z,10.71
2022-11-23T09:32:08.145Z,11.85
2022-11-23T09:34:35.575Z,11.92
2022-11-23T09:37:02.995Z,10.80
2022-11-23T09:39:30.356Z,10.50
2022-11-23T09:42:13.797Z,11.70
2022-11-23T09:44:59.229Z,11.53
2022-11-23T09:47:42.000Z,13.03
2022-11-23T09:50:18.119Z,13.12
2022-11-23T09:52:47.780Z,12.95
2022-11-23T09:55:33.200Z,13.17
2022-11-23T09:58:05.707Z,13.48
2022-11-23T10:00:44.780Z,13.23
2022-11-23T10:03:17.103Z,12.57
2022-11-23T10:06:22.729Z,11.24
2022-11-23T10:09:14.760Z,12.02
2022-11-23T10:11:49.054Z,11.60
2022-11-23T10:14:35.215Z,11.99
2022-11-23T10:17:39.522Z,11.75
2022-11-23T10:20:40.639Z,10.92
2022-11-23T10:23:30.661Z,11.14
2022-11-23T10:25:58.092Z,10.81
2022-11-23T10:28:25.532Z,11.91
2022-11-23T10:31:14.858Z,12.49
2022-11-23T10:34:09.484Z,10.64
2022-11-23T10:36:37.569Z,11.50
2022-11-23T10:39:23.456Z,11.98
2022-11-23T10:41:54.556Z,12.21
2022-11-23T10:44:37.823Z,10.54
2022-11-23T10:47:05.734Z,10.87
2022-11-23T10:49:34.511Z,11.42
2022-11-23T10:52:29.523Z,12.00
2022-11-23T10:54:58.836Z,12.18
2022-11-23T10:57:33.182Z,11.21
2022-11-23T11:00:22.776Z,10.90
2022-11-23T11:02:56.451Z,11.00
2022-11-23T11:08:22.514Z,11.34
2022-11-23T11:10:56.680Z,12.16
2022-11-23T11:13:27.182Z,11.83
2022-11-23T11:16:04.794Z,11.59
2022-11-23T11:18:35.255Z,11.59
2022-11-23T11:21:10.016Z,12.05
2022-11-23T11:23:41.027Z,11.52
2022-11-23T11:26:17.163Z,10.96
2022-11-23T11:28:48.923Z,11.01
2022-11-23T11:31:26.088Z,11.29
2022-11-23T11:34:02.407Z,11.55
2022-11-23T11:36:36.113Z,11.70
2022-11-23T11:39:18.374Z,11.09
2022-11-23T11:41:47.783Z,11.39
2022-11-23T11:44:20.577Z,12.11
2022-11-23T11:46:54.768Z,11.43
2022-11-23T11:49:40.230Z,11.69
2022-11-23T11:52:23.661Z,12.18
2022-11-23T11:55:02.979Z,11.58
2022-11-23T11:57:46.106Z,11.78
2022-11-23T12:00:19.364Z,11.93
2022-11-23T12:03:11.279Z,11.87
2022-11-23T12:05:52.464Z,12.32
2022-11-23T12:08:50.620Z,11.75
2022-11-23T12:11:19.489Z,12.76
2022-11-23T12:13:47.143Z,12.13
2022-11-23T12:16:19.940Z,11.74
2022-11-23T12:18:58.734Z,11.86
2022-11-23T12:21:55.900Z,12.12
2022-11-23T12:24:26.988Z,12.94
2022-11-23T12:27:21.166Z,12.27
2022-11-23T12:30:14.129Z,11.66
2022-11-23T12:33:05.708Z,11.87
2022-11-23T12:35:57.175Z,11.52
2022-11-23T12:38:48.136Z,11.37
2022-11-23T12:41:34.962Z,11.62
2022-11-23T12:44:40.303Z,11.54
2022-11-23T12:47:16.886Z,11.82
2022-11-23T12:49:59.020Z,11.92
2022-11-23T12:52:52.046Z,11.30
2022-11-23T12:55:30.181Z,11.21
2022-11-23T12:58:17.259Z,10.86
2022-11-23T13:01:00.243Z,10.89
2022-11-23T13:03:39.517Z,10.99
2022-11-23T13:06:15.816Z,10.86
2022-11-23T13:09:10.244Z,11.31
2022-11-23T13:11:46.689Z,11.10
2022-11-23T13:14:14.028Z,11.22
2022-11-23T13:16:54.477Z,11.19
2022-11-23T13:19:31.019Z,10.78
2022-11-23T13:21:59.049Z,10.64
2022-11-23T13:24:32.814Z,11.07
2022-11-23T13:27:15.723Z,10.74
2022-11-23T13:29:51.970Z,11.39
2022-11-23T13:32:46.211Z,11.57
2022-11-23T13:35:19.621Z,11.26
2022-11-23T13:38:15.823Z,11.34
2022-11-23T13:40:44.872Z,11.30
2022-11-23T13:43:13.418Z,10.76
2022-11-23T13:45:40.843Z,10.72
2022-11-23T13:48:19.431Z,10.92
2022-11-23T13:51:00.343Z,11.49
2022-11-23T13:53:36.653Z,11.12
2022-11-23T13:56:30.612Z,11.00
2022-11-23T13:59:20.755Z,11.34
2022-11-23T14:02:07.105Z,10.50
2022-11-23T14:04:39.563Z,10.22
2022-11-23T14:07:32.099Z,10.10
2022-11-23T14:10:09.889Z,9.96
2022-11-23T14:12:49.318Z,9.94
2022-11-23T14:15:20.176Z,9.93
2022-11-23T14:18:16.016Z,9.91
2022-11-23T14:20:55.254Z,9.76
2022-11-23T14:23:43.459Z,9.74
2022-11-23T14:26:30.224Z,9.75
2022-11-23T14:29:26.366Z,9.74
2022-11-23T14:32:02.590Z,9.69
2022-11-23T14:34:35.826Z,9.65
2022-11-23T14:37:22.170Z,9.62
2022-11-23T14:40:12.835Z,9.53
2022-11-23T14:42:45.653Z,9.48
2022-11-23T14:45:14.790Z,9.42
2022-11-23T14:47:42.179Z,9.39
2022-11-23T14:50:31.509Z,9.30
2022-11-23T14:52:59.844Z,9.19
2022-11-23T14:55:32.782Z,9.05
2022-11-23T14:58:04.229Z,9.07
2022-11-23T15:00:40.345Z,8.96
2022-11-23T15:03:48.323Z,8.86
2022-11-23T15:06:13.210Z,8.82
2022-11-23T15:08:53.990Z,8.64
2022-11-23T15:11:24.600Z,8.50
2022-11-23T15:13:53.412Z,8.25
2022-11-23T15:16:22.230Z,8.10
2022-11-23T15:18:49.726Z,8.05
2022-11-23T15:21:27.277Z,8.08
2022-11-23T15:23:57.411Z,8.00
2022-11-23T15:26:47.587Z,8.01
2022-11-23T15:29:36.599Z,7.84
2022-11-23T15:32:35.602Z,7.84
2022-11-23T15:35:10.798Z,7.74
2022-11-23T15:37:45.881Z,7.74
2022-11-23T15:40:18.414Z,7.59
2022-11-23T15:42:47.631Z,7.53
2022-11-23T15:45:57.296Z,7.60
2022-11-23T15:48:33.207Z,7.55
2022-11-23T15:51:02.758Z,7.61
2022-11-23T15:53:47.771Z,7.35
2022-11-23T15:56:36.250Z,7.18
2022-11-23T15:59:23.861Z,7.01
2022-11-23T16:01:51.358Z,7.05
2022-11-23T16:04:45.689Z,6.85
2022-11-23T16:07:17.454Z,6.68
2022-11-23T16:09:52.214Z,6.76
2022-11-23T16:12:21.959Z,6.60
2022-11-23T16:14:49.679Z,6.75
2022-11-23T16:17:21.498Z,6.82
2022-11-23T16:19:50.753Z,6.84
2022-11-23T16:22:25.950Z,6.74
2022-11-23T16:25:03.664Z,6.43
2022-11-23T16:27:31.022Z,6.45
2022-11-23T16:30:02.841Z,6.55
2022-11-23T16:32:32.278Z,6.47
2022-11-23T16:35:14.239Z,6.41
2022-11-23T16:37:41.599Z,6.07
2022-11-23T16:40:09.578Z,6.26
2022-11-23T16:42:36.968Z,6.12
2022-11-23T16:45:04.560Z,6.02
2022-11-23T16:47:31.960Z,6.14
2022-11-23T16:49:59.282Z,6.27
2022-11-23T16:52:26.716Z,6.41
2022-11-23T16:54:54.130Z,6.51
2022-11-23T16:57:31.630Z,6.58
2022-11-23T17:00:01.668Z,6.61
2022-11-23T17:02:29.041Z,6.64
2022-11-23T17:04:56.494Z,6.67
2022-11-23T17:07:23.945Z,6.74
2022-11-23T17:09:51.353Z,6.88
2022-11-23T17:12:19.949Z,6.90
2022-11-23T17:14:51.107Z,6.97
2022-11-23T17:17:22.464Z,6.92
2022-11-23T17:19:50.899Z,6.91
2022-11-23T17:22:19.505Z,6.65
2022-11-23T17:24:47.644Z,6.66
2022-11-23T17:27:17.091Z,6.64
2022-11-23T17:29:45.014Z,6.64
2022-11-23T17:32:14.213Z,6.85
2022-11-23T17:34:41.891Z,6.74
2022-11-23T17:37:23.940Z,6.78
2022-11-23T17:39:51.674Z,6.60
2022-11-23T17:42:19.131Z,6.65
2022-11-23T17:44:46.605Z,6.42
2022-11-23T17:47:25.897Z,6.39
2022-11-23T17:49:53.271Z,6.39
2022-11-23T17:52:20.985Z,6.53
2022-11-23T17:54:48.409Z,6.49
2022-11-23T17:57:22.326Z,6.42
2022-11-23T17:59:49.958Z,6.46
2022-11-23T18:02:19.211Z,6.43
2022-11-23T18:04:47.716Z,6.12
2022-11-23T18:07:16.006Z,6.00
2022-11-23T18:09:43.492Z,5.94
2022-11-23T18:12:11.308Z,5.88
2022-11-23T18:14:38.736Z,5.96
2022-11-23T18:17:06.043Z,5.94
2022-11-23T18:19:33.831Z,5.85
2022-11-23T18:22:01.463Z,5.70
2022-11-23T18:24:28.792Z,5.61
2022-11-23T18:26:56.290Z,5.60
2022-11-23T18:29:23.697Z,5.44
2022-11-23T18:31:51.002Z,5.42
2022-11-23T18:34:18.287Z,5.39
2022-11-23T18:36:45.566Z,5.36
2022-11-23T18:39:13.809Z,5.30
2022-11-23T18:41:41.211Z,5.29
2022-11-23T18:44:08.509Z,5.27
2022-11-23T18:46:35.873Z,5.39
2022-11-23T18:49:03.253Z,5.39
2022-11-23T18:51:31.075Z,5.30
2022-11-23T18:53:58.833Z,5.29
2022-11-23T18:56:26.210Z,5.28
2022-11-23T18:58:53.579Z,5.28
2022-11-23T19:01:22.684Z,5.34
2022-11-23T19:03:52.077Z,5.40
2022-11-23T19:06:21.964Z,5.34
2022-11-23T19:08:51.531Z,5.43
2022-11-23T19:11:21.156Z,5.44
2022-11-23T19:13:50.866Z,5.48
2022-11-23T19:16:24.039Z,5.46
2022-11-23T19:18:55.723Z,5.36
2022-11-23T19:21:24.507Z,5.36
2022-11-23T19:23:53.185Z,5.34
2022-11-23T19:26:21.144Z,5.35
2022-11-23T19:28:48.950Z,5.34
2022-11-23T19:31:22.010Z,5.40
2022-11-23T19:33:50.531Z,5.39
2022-11-23T19:36:20.223Z,5.41
2022-11-23T19:38:50.544Z,5.44
2022-11-23T19:41:18.790Z,5.46
2022-11-23T19:43:46.308Z,5.46
2022-11-23T19:46:14.563Z,5.54
2022-11-23T19:48:42.172Z,5.56
2022-11-23T19:51:13.996Z,5.57
2022-11-23T19:53:42.507Z,5.53
2022-11-23T19:56:26.194Z,5.52
2022-11-23T19:58:56.030Z,5.54
2022-11-23T20:01:25.174Z,5.59
2022-11-23T20:03:54.952Z,5.65
2022-11-23T20:06:26.417Z,5.63
2022-11-23T20:09:02.305Z,5.71
2022-11-23T20:11:32.195Z,5.76
2022-11-23T20:13:59.205Z,5.75
2022-11-23T20:16:30.000Z,5.75
2022-11-23T20:19:06.489Z,5.74
2022-11-23T20:21:34.593Z,5.75
2022-11-23T20:24:14.628Z,5.78
2022-11-23T20:26:42.409Z,5.82
2022-11-23T20:29:09.644Z,5.85
2022-11-23T20:31:37.631Z,5.87
2022-11-23T20:34:07.761Z,5.94
2022-11-23T20:36:37.852Z,5.91
2022-11-23T20:39:07.846Z,5.88
2022-11-23T20:41:36.771Z,5.88
2022-11-23T20:44:14.866Z,5.91
2022-11-23T20:49:30.348Z,5.95
2022-11-23T20:51:58.502Z,5.97
2022-11-23T20:54:25.748Z,6.03
2022-11-23T20:56:52.735Z,6.02
2022-11-23T20:59:20.258Z,6.07
2022-11-23T21:01:47.262Z,6.08
2022-11-23T21:04:14.305Z,6.05
2022-11-23T21:06:41.415Z,6.04
2022-11-23T21:09:10.243Z,6.04
2022-11-23T21:11:55.967Z,6.12
2022-11-23T21:14:27.378Z,6.25
2022-11-23T21:17:00.833Z,6.27
2022-11-23T21:19:30.193Z,6.35
2022-11-23T21:21:59.152Z,6.40
2022-11-23T21:24:26.230Z,6.46
2022-11-23T21:26:53.192Z,6.47
2022-11-23T21:29:20.474Z,6.52
2022-11-23T21:31:48.994Z,6.52
2022-11-23T21:34:22.872Z,6.51
2022-11-23T21:36:51.071Z,6.58
2022-11-23T21:39:18.815Z,6.54
2022-11-23T21:41:47.487Z,6.53
2022-11-23T21:44:14.505Z,6.50
2022-11-23T21:46:42.477Z,6.42
2022-11-23T21:49:10.441Z,6.45
2022-11-23T21:51:38.601Z,6.53
2022-11-23T21:54:09.771Z,6.54
2022-11-23T21:56:36.724Z,6.53
2022-11-23T21:59:03.819Z,6.51
2022-11-23T22:01:33.271Z,6.52
2022-11-23T22:04:13.205Z,6.42
2022-11-23T22:06:42.067Z,6.29
2022-11-23T22:09:10.597Z,6.33
2022-11-23T22:11:41.143Z,6.32
2022-11-23T22:14:14.639Z,6.39
2022-11-23T22:16:47.316Z,6.41
2022-11-23T22:19:16.471Z,6.40
2022-11-23T22:21:45.647Z,6.42
2022-11-23T22:24:16.186Z,6.42
2022-11-23T22:26:44.141Z,6.47
2022-11-23T22:29:11.752Z,6.47
2022-11-23T22:31:39.540Z,6.47
2022-11-23T22:34:09.263Z,6.43
2022-11-23T22:36:36.392Z,6.46
2022-11-23T22:39:06.074Z,6.41
2022-11-23T22:41:36.660Z,6.35
2022-11-23T22:44:06.812Z,6.33
2022-11-23T22:46:34.167Z,6.29
2022-11-23T22:49:01.876Z,6.18
2022-11-23T22:51:29.883Z,6.14
2022-11-23T22:53:59.286Z,6.17
2022-11-23T22:56:27.504Z,6.26
2022-11-23T22:58:54.803Z,6.31
2022-11-23T23:01:24.617Z,6.18
2022-11-23T23:03:56.700Z,6.18
2022-11-23T23:06:29.644Z,6.15
2022-11-23T23:08:59.427Z,6.19
2022-11-23T23:11:29.384Z,6.11
2022-11-23T23:13:56.892Z,6.09
2022-11-23T23:16:24.634Z,6.05
2022-11-23T23:18:52.122Z,6.03
2022-11-23T23:21:21.655Z,6.03
2022-11-23T23:23:51.650Z,6.07
2022-11-23T23:26:22.288Z,6.16
2022-11-23T23:28:53.536Z,6.25
2022-11-23T23:31:20.545Z,6.25
2022-11-23T23:33:47.693Z,6.25
2022-11-23T23:36:17.724Z,6.31
2022-11-23T23:38:45.474Z,6.34
2022-11-23T23:41:13.930Z,6.32
2022-11-23T23:43:41.909Z,6.31
2022-11-23T23:46:12.172Z,6.33
2022-11-23T23:48:40.694Z,6.43
2022-11-23T23:51:18.965Z,6.40
2022-11-23T23:53:46.678Z,6.38
2022-11-23T23:56:16.045Z,6.14
2022-11-23T23:58:43.269Z,6.09
